createdAt,value
2023-05-10T00:01:42.456Z,10.81
2023-05-10T00:04:10.146Z,10.20
2023-05-10T00:06:38.018Z,10.67
2023-05-10T00:09:05.786Z,10.65
2023-05-10T00:11:35.531Z,10.62
2023-05-10T00:14:05.724Z,10.44
2023-05-10T00:16:36.415Z,10.58
2023-05-10T00:19:07.335Z,10.51
2023-05-10T00:21:34.869Z,10.56
2023-05-10T00:24:05.164Z,10.01
2023-05-10T00:26:34.669Z,10.61
2023-05-10T00:29:02.551Z,10.67
2023-05-10T00:31:32.371Z,10.58
2023-05-10T00:34:04.354Z,10.53
2023-05-10T00:36:34.472Z,10.61
2023-05-10T00:39:04.613Z,10.63
2023-05-10T00:41:34.894Z,10.57
2023-05-10T00:44:03.256Z,10.54
2023-05-10T00:46:30.847Z,10.47
2023-05-10T00:48:59.306Z,10.21
2023-05-10T00:51:28.298Z,10.54
2023-05-10T00:53:57.124Z,10.48
2023-05-10T00:56:25.758Z,10.44
2023-05-10T00:58:53.165Z,10.31
2023-05-10T01:01:23.157Z,10.45
2023-05-10T01:03:52.325Z,9.89
2023-05-10T01:06:19.468Z,10.20
2023-05-10T01:08:48.521Z,10.42
2023-05-10T01:11:17.437Z,10.36
2023-05-10T01:13:48.452Z,10.35
2023-05-10T01:16:15.989Z,10.14
2023-05-10T01:18:45.292Z,10.25
2023-05-10T01:21:24.539Z,9.97
2023-05-10T01:24:40.410Z,10.21
2023-05-10T01:27:24.556Z,10.03
2023-05-10T01:30:18.039Z,9.85
2023-05-10T01:32:53.235Z,9.59
2023-05-10T01:35:27.780Z,10.08
2023-05-10T01:38:02.885Z,9.42
2023-05-10T01:40:38.877Z,9.79
2023-05-10T01:43:12.149Z,9.73
2023-05-10T01:45:48.363Z,9.69
2023-05-10T01:48:23.578Z,9.41
2023-05-10T01:50:54.143Z,9.26
2023-05-10T01:53:23.998Z,9.22
2023-05-10T01:55:56.276Z,9.78
2023-05-10T01:58:28.360Z,9.20
2023-05-10T02:01:00.704Z,9.57
2023-05-10T02:03:34.079Z,9.14
2023-05-10T02:06:03.689Z,9.06
2023-05-10T02:08:32.041Z,9.68
2023-05-10T02:11:00.959Z,9.09
2023-05-10T02:13:31.031Z,9.16
2023-05-10T02:16:00.219Z,9.61
2023-05-10T02:18:31.101Z,9.66
2023-05-10T02:21:00.276Z,9.53
2023-05-10T02:23:27.813Z,8.74
2023-05-10T02:25:59.844Z,8.87
2023-05-10T02:28:28.149Z,9.38
2023-05-10T02:30:56.259Z,9.39
2023-05-10T02:33:24.464Z,9.37
2023-05-10T02:35:54.056Z,9.18
2023-05-10T02:38:23.598Z,8.57
2023-05-10T02:40:52.141Z,9.21
2023-05-10T02:43:20.112Z,9.04
2023-05-10T02:45:49.313Z,8.54
2023-05-10T02:48:19.384Z,9.20
2023-05-10T02:50:52.325Z,9.14
2023-05-10T02:53:31.464Z,8.49
2023-05-10T02:56:09.157Z,8.61
2023-05-10T02:58:36.610Z,8.43
2023-05-10T03:01:06.341Z,9.12
2023-05-10T03:03:33.750Z,8.47
2023-05-10T03:06:02.370Z,8.32
2023-05-10T03:08:32.826Z,8.98
2023-05-10T03:11:17.525Z,8.31
2023-05-10T03:13:58.487Z,9.02
2023-05-10T03:16:34.357Z,8.67
2023-05-10T03:19:09.485Z,8.44
2023-05-10T03:21:42.780Z,9.11
2023-05-10T03:24:16.388Z,8.48
2023-05-10T03:26:48.010Z,8.48
2023-05-10T03:29:16.854Z,8.73
2023-05-10T03:31:44.525Z,9.06
2023-05-10T03:34:12.831Z,8.41
2023-05-10T03:36:42.142Z,8.92
2023-05-10T03:39:10.074Z,9.00
2023-05-10T03:41:39.058Z,9.10
2023-05-10T03:44:07.932Z,8.90
2023-05-10T03:46:35.150Z,9.13
2023-05-10T03:49:02.307Z,8.97
2023-05-10T03:51:29.639Z,8.72
2023-05-10T03:53:56.879Z,9.25
2023-05-10T03:56:26.015Z,9.26
2023-05-10T03:58:54.472Z,8.69
2023-05-10T04:01:25.257Z,9.33
2023-05-10T04:03:52.924Z,9.24
2023-05-10T04:06:20.642Z,9.52
2023-05-10T04:08:48.092Z,9.38
2023-05-10T04:11:18.061Z,9.03
2023-05-10T04:13:46.419Z,9.16
2023-05-10T04:16:16.963Z,9.59
2023-05-10T04:18:46.697Z,9.95
2023-05-10T04:21:21.185Z,9.49
2023-05-10T04:23:49.031Z,9.88
2023-05-10T04:26:17.270Z,10.46
2023-05-10T04:28:45.866Z,10.75
2023-05-10T04:31:23.339Z,10.54
2023-05-10T04:33:51.245Z,11.80
2023-05-10T04:36:19.088Z,12.47
2023-05-10T04:38:49.125Z,12.34
2023-05-10T04:41:17.373Z,13.06
2023-05-10T04:43:46.518Z,14.35
2023-05-10T04:46:26.236Z,15.80
2023-05-10T04:48:53.585Z,16.59
2023-05-10T04:51:21.593Z,17.46
2023-05-10T04:54:04.545Z,18.51
2023-05-10T04:56:34.631Z,19.12
2023-05-10T04:59:03.180Z,19.78
2023-05-10T05:01:40.258Z,20.91
2023-05-10T05:07:22.465Z,20.86
2023-05-10T05:13:21.234Z,21.78
2023-05-10T05:15:52.292Z,22.43
2023-05-10T05:18:25.519Z,22.46
2023-05-10T05:20:53.133Z,22.39
2023-05-10T05:23:25.844Z,22.39
2023-05-10T05:25:56.557Z,22.52
2023-05-10T05:28:24.451Z,22.03
2023-05-10T05:30:51.960Z,21.23
2023-05-10T05:33:19.778Z,19.64
2023-05-10T05:35:51.759Z,19.62
2023-05-10T05:38:20.626Z,19.07
2023-05-10T05:40:49.182Z,18.52
2023-05-10T05:43:18.100Z,18.49
2023-05-10T05:45:45.649Z,18.23
2023-05-10T05:48:17.817Z,18.53
2023-05-10T05:50:46.605Z,18.68
2023-05-10T05:53:19.247Z,18.28
2023-05-10T05:55:53.764Z,18.39
2023-05-10T05:58:20.961Z,18.22
2023-05-10T06:00:53.215Z,17.92
2023-05-10T06:03:21.261Z,18.39
2023-05-10T06:05:52.181Z,18.65
2023-05-10T06:08:21.637Z,18.87
2023-05-10T06:10:57.709Z,18.71
2023-05-10T06:13:25.096Z,18.46
2023-05-10T06:15:52.826Z,18.48
2023-05-10T06:18:20.266Z,18.79
2023-05-10T06:20:48.713Z,18.51
2023-05-10T06:23:17.816Z,18.54
2023-05-10T06:25:47.916Z,18.49
2023-05-10T06:28:17.532Z,18.33
2023-05-10T06:30:45.552Z,18.39
2023-05-10T06:33:13.951Z,18.62
2023-05-10T06:35:41.352Z,18.55
2023-05-10T06:38:15.245Z,18.70
2023-05-10T06:40:47.258Z,19.10
2023-05-10T06:43:15.038Z,19.13
2023-05-10T06:45:42.649Z,19.07
2023-05-10T06:48:11.214Z,19.16
2023-05-10T06:50:39.493Z,18.90
2023-05-10T06:53:09.028Z,18.96
2023-05-10T06:55:38.062Z,18.92
2023-05-10T06:58:07.283Z,18.88
2023-05-10T07:00:41.901Z,19.62
2023-05-10T07:03:09.188Z,19.83
2023-05-10T07:05:37.398Z,19.51
2023-05-10T07:08:06.301Z,19.20
2023-05-10T07:10:36.868Z,19.21
2023-05-10T07:13:12.433Z,19.64
2023-05-10T07:15:40.128Z,19.87
2023-05-10T07:18:07.653Z,19.61
2023-05-10T07:20:35.544Z,19.29
2023-05-10T07:23:03.278Z,19.41
2023-05-10T07:25:31.185Z,19.21
2023-05-10T07:27:59.308Z,19.06
2023-05-10T07:33:29.325Z,19.28
2023-05-10T07:35:59.977Z,18.69
2023-05-10T07:38:38.938Z,18.51
2023-05-10T07:41:13.209Z,19.09
2023-05-10T07:43:41.013Z,18.26
2023-05-10T07:46:08.549Z,19.26
2023-05-10T07:48:37.740Z,19.48
2023-05-10T07:51:07.388Z,19.09
2023-05-10T07:53:34.575Z,19.46
2023-05-10T07:56:22.015Z,19.25
2023-05-10T07:58:49.320Z,18.88
2023-05-10T08:01:19.636Z,19.30
2023-05-10T08:03:53.316Z,18.38
2023-05-10T08:06:22.230Z,18.94
2023-05-10T08:08:54.556Z,18.63
2023-05-10T08:11:26.089Z,19.09
2023-05-10T08:14:01.048Z,18.36
2023-05-10T08:16:32.766Z,18.27
2023-05-10T08:19:02.529Z,18.47
2023-05-10T08:21:30.388Z,18.35
2023-05-10T08:23:57.762Z,18.06
2023-05-10T08:26:25.189Z,18.22
2023-05-10T08:28:52.440Z,18.06
2023-05-10T08:31:24.855Z,18.48
2023-05-10T08:33:54.722Z,18.21
2023-05-10T08:36:25.279Z,19.06
2023-05-10T08:38:55.706Z,19.42
2023-05-10T08:41:25.534Z,19.82
2023-05-10T08:43:53.177Z,19.73
2023-05-10T08:46:25.252Z,19.44
2023-05-10T08:48:53.327Z,19.56
2023-05-10T08:51:28.349Z,19.83
2023-05-10T08:53:56.006Z,19.83
2023-05-10T08:56:25.167Z,19.84
2023-05-10T08:58:52.536Z,19.20
2023-05-10T09:01:22.504Z,19.79
2023-05-10T09:03:52.797Z,19.99
2023-05-10T09:06:28.002Z,20.14
2023-05-10T09:08:57.292Z,20.66
2023-05-10T09:11:30.178Z,20.60
2023-05-10T09:13:57.334Z,20.65
2023-05-10T09:16:25.276Z,20.80
2023-05-10T09:18:54.778Z,20.79
2023-05-10T09:21:22.236Z,20.34
2023-05-10T09:23:51.192Z,20.87
2023-05-10T09:26:23.934Z,20.69
2023-05-10T09:28:58.095Z,20.83
2023-05-10T09:31:48.737Z,21.12
2023-05-10T09:34:29.865Z,20.60
2023-05-10T09:36:58.736Z,21.14
2023-05-10T09:39:34.131Z,21.02
2023-05-10T09:42:04.865Z,21.00
2023-05-10T09:44:35.998Z,21.02
2023-05-10T09:47:04.243Z,20.74
2023-05-10T09:49:31.886Z,20.99
2023-05-10T09:52:04.909Z,20.62
2023-05-10T09:54:34.312Z,21.11
2023-05-10T09:57:01.998Z,21.31
2023-05-10T09:59:30.184Z,21.39
2023-05-10T10:01:58.332Z,21.03
2023-05-10T10:04:27.118Z,21.37
2023-05-10T10:07:06.103Z,21.16
2023-05-10T10:09:37.434Z,20.42
2023-05-10T10:12:05.761Z,21.04
2023-05-10T10:14:32.992Z,21.09
2023-05-10T10:19:34.510Z,20.89
2023-05-10T10:22:02.093Z,20.86
2023-05-10T10:24:31.834Z,21.00
2023-05-10T10:27:08.862Z,21.45
2023-05-10T10:29:47.977Z,21.56
2023-05-10T10:32:25.656Z,21.41
2023-05-10T10:34:53.196Z,21.08
2023-05-10T10:37:22.774Z,20.85
2023-05-10T10:39:50.700Z,21.08
2023-05-10T10:42:51.040Z,21.01
2023-05-10T10:45:21.142Z,21.13
2023-05-10T10:47:48.672Z,20.77
2023-05-10T10:50:18.586Z,21.37
2023-05-10T10:52:50.607Z,21.56
2023-05-10T10:55:20.034Z,21.55
2023-05-10T10:57:51.982Z,21.86
2023-05-10T11:00:29.926Z,21.32
2023-05-10T11:03:00.077Z,21.13
2023-05-10T11:05:36.785Z,20.70
2023-05-10T11:08:19.160Z,21.03
2023-05-10T11:11:05.357Z,20.84
2023-05-10T11:13:38.303Z,20.97
2023-05-10T11:16:19.694Z,21.09
2023-05-10T11:19:05.473Z,21.22
2023-05-10T11:21:48.023Z,20.65
2023-05-10T11:24:17.112Z,21.24
2023-05-10T11:26:50.403Z,21.48
2023-05-10T11:29:19.340Z,21.62
2023-05-10T11:31:48.527Z,21.64
2023-05-10T11:34:25.342Z,22.05
2023-05-10T11:36:59.434Z,21.90
2023-05-10T11:39:28.519Z,22.34
2023-05-10T11:41:55.550Z,22.11
2023-05-10T11:44:29.856Z,21.56
2023-05-10T11:47:03.045Z,21.76
2023-05-10T11:49:31.188Z,22.45
2023-05-10T11:52:08.259Z,22.25
2023-05-10T11:54:41.586Z,22.06
2023-05-10T11:57:08.598Z,22.57
2023-05-10T11:59:40.250Z,22.70
2023-05-10T12:02:08.356Z,22.50
2023-05-10T12:04:37.998Z,22.48
2023-05-10T12:07:07.306Z,22.92
2023-05-10T12:09:43.895Z,22.54
2023-05-10T12:12:11.649Z,22.80
2023-05-10T12:14:49.900Z,22.53
2023-05-10T12:17:19.087Z,22.87
2023-05-10T12:19:46.423Z,23.08
2023-05-10T12:22:13.513Z,22.85
2023-05-10T12:24:46.117Z,22.58
2023-05-10T12:27:15.786Z,22.71
2023-05-10T12:29:47.865Z,23.02
2023-05-10T12:32:15.097Z,22.86
2023-05-10T12:34:54.391Z,22.44
2023-05-10T12:37:25.737Z,22.24
2023-05-10T12:39:53.123Z,22.47
2023-05-10T12:42:20.211Z,22.28
2023-05-10T12:44:54.536Z,22.16
2023-05-10T12:47:24.372Z,22.86
2023-05-10T12:49:52.389Z,22.63
2023-05-10T12:52:19.413Z,22.63
2023-05-10T12:54:54.393Z,22.82
2023-05-10T12:57:21.560Z,22.73
2023-05-10T12:59:52.872Z,22.60
2023-05-10T13:02:20.159Z,22.91
2023-05-10T13:04:50.845Z,22.76
2023-05-10T13:07:18.156Z,23.15
2023-05-10T13:09:45.492Z,22.75
2023-05-10T13:12:12.809Z,22.81
2023-05-10T13:14:42.041Z,22.64
2023-05-10T13:17:10.706Z,22.31
2023-05-10T13:19:38.189Z,22.65
2023-05-10T13:22:07.397Z,22.47
2023-05-10T13:24:40.194Z,21.64
2023-05-10T13:27:08.916Z,21.84
2023-05-10T13:29:36.373Z,21.83
2023-05-10T13:32:03.588Z,21.85
2023-05-10T13:34:32.245Z,21.98
2023-05-10T13:36:59.382Z,22.47
2023-05-10T13:39:26.709Z,22.25
2023-05-10T13:41:53.965Z,22.33
2023-05-10T13:44:23.573Z,21.97
2023-05-10T13:46:50.802Z,21.46
2023-05-10T13:49:18.074Z,21.19
2023-05-10T13:51:46.670Z,20.92
2023-05-10T13:54:14.273Z,21.32
2023-05-10T13:56:45.001Z,20.93
2023-05-10T13:59:12.247Z,21.27
2023-05-10T14:01:39.215Z,21.23
2023-05-10T14:04:07.289Z,21.23
2023-05-10T14:06:35.133Z,21.40
2023-05-10T14:09:04.130Z,20.95
2023-05-10T14:11:30.872Z,21.45
2023-05-10T14:13:58.142Z,21.69
2023-05-10T14:16:25.354Z,21.46
2023-05-10T14:18:52.683Z,21.69
2023-05-10T14:21:19.894Z,21.77
2023-05-10T14:23:47.288Z,21.44
2023-05-10T14:26:15.641Z,20.94
2023-05-10T14:28:42.855Z,21.53
2023-05-10T14:31:09.869Z,21.44
2023-05-10T14:33:37.410Z,21.87
2023-05-10T14:36:05.031Z,21.59
2023-05-10T14:38:32.401Z,21.40
2023-05-10T14:40:59.521Z,21.53
2023-05-10T14:43:29.155Z,21.90
2023-05-10T14:45:56.237Z,21.44
2023-05-10T14:48:23.840Z,21.11
2023-05-10T14:50:51.274Z,21.10
2023-05-10T14:53:19.364Z,21.19
2023-05-10T14:55:46.398Z,21.27
2023-05-10T14:58:13.840Z,21.46
2023-05-10T15:00:42.415Z,21.00
2023-05-10T15:03:10.467Z,20.87
2023-05-10T15:05:38.675Z,21.14
2023-05-10T15:08:06.840Z,21.10
2023-05-10T15:10:34.546Z,20.73
2023-05-10T15:13:02.422Z,20.78
2023-05-10T15:15:29.333Z,21.26
2023-05-10T15:17:58.264Z,20.84
2023-05-10T15:20:25.244Z,20.90
2023-05-10T15:22:52.760Z,20.81
2023-05-10T15:25:19.687Z,21.25
2023-05-10T15:27:47.156Z,20.92
2023-05-10T15:30:14.579Z,20.92
2023-05-10T15:32:41.966Z,20.90
2023-05-10T15:35:11.257Z,21.17
2023-05-10T15:37:38.845Z,20.93
2023-05-10T15:40:07.808Z,20.82
2023-05-10T15:42:35.446Z,20.52
2023-05-10T15:45:02.624Z,20.70
2023-05-10T15:47:31.232Z,20.73
2023-05-10T15:49:58.486Z,20.91
2023-05-10T15:52:27.428Z,20.77
2023-05-10T15:54:54.512Z,20.28
2023-05-10T15:57:21.843Z,20.06
2023-05-10T15:59:49.365Z,20.10
2023-05-10T16:02:17.701Z,20.02
2023-05-10T16:04:45.300Z,19.95
2023-05-10T16:07:12.758Z,20.12
2023-05-10T16:09:42.651Z,19.73
2023-05-10T16:12:09.964Z,20.08
2023-05-10T16:14:36.933Z,19.73
2023-05-10T16:17:04.715Z,20.13
2023-05-10T16:19:32.284Z,20.06
2023-05-10T16:21:59.675Z,19.61
2023-05-10T16:24:26.714Z,19.82
2023-05-10T16:26:55.436Z,19.45
2023-05-10T16:29:22.513Z,19.53
2023-05-10T16:31:49.846Z,19.54
2023-05-10T16:34:16.960Z,19.86
2023-05-10T16:36:44.256Z,19.50
2023-05-10T16:39:11.493Z,19.44
2023-05-10T16:41:38.896Z,19.66
2023-05-10T16:44:07.817Z,19.59
2023-05-10T16:46:35.292Z,19.31
2023-05-10T16:49:02.729Z,18.94
2023-05-10T16:51:30.217Z,19.26
2023-05-10T16:53:57.282Z,18.61
2023-05-10T16:56:24.669Z,18.52
2023-05-10T16:58:51.683Z,18.64
2023-05-10T17:01:20.545Z,18.71
2023-05-10T17:03:47.755Z,18.67
2023-05-10T17:06:15.141Z,18.61
2023-05-10T17:08:42.234Z,18.50
2023-05-10T17:11:09.770Z,18.57
2023-05-10T17:13:38.771Z,18.63
2023-05-10T17:16:07.070Z,18.52
2023-05-10T17:18:35.475Z,18.52
2023-05-10T17:21:02.623Z,18.47
2023-05-10T17:23:30.461Z,17.99
2023-05-10T17:25:59.557Z,18.33
2023-05-10T17:28:28.061Z,18.21
2023-05-10T17:30:59.119Z,18.10
2023-05-10T17:33:26.390Z,17.45
2023-05-10T17:35:55.556Z,17.52
2023-05-10T17:38:22.343Z,17.80
2023-05-10T17:40:49.636Z,17.29
2023-05-10T17:43:19.107Z,17.18
2023-05-10T17:45:49.798Z,17.50
2023-05-10T17:48:17.330Z,17.02
2023-05-10T17:50:44.719Z,17.00
2023-05-10T17:53:13.129Z,16.86
2023-05-10T17:55:41.284Z,16.75
2023-05-10T17:58:09.767Z,16.76
2023-05-10T18:00:36.965Z,17.13
2023-05-10T18:03:04.731Z,17.07
2023-05-10T18:05:35.038Z,16.61
2023-05-10T18:08:02.109Z,16.37
2023-05-10T18:10:30.969Z,16.88
2023-05-10T18:13:02.527Z,16.33
2023-05-10T18:15:30.025Z,16.18
2023-05-10T18:17:57.101Z,16.68
2023-05-10T18:20:24.376Z,16.18
2023-05-10T18:22:51.809Z,16.04
2023-05-10T18:25:19.562Z,16.43
2023-05-10T18:27:48.277Z,16.09
2023-05-10T18:30:15.527Z,16.26
2023-05-10T18:32:42.974Z,16.17
2023-05-10T18:35:11.124Z,15.65
2023-05-10T18:37:41.247Z,16.00
2023-05-10T18:40:11.130Z,15.66
2023-05-10T18:42:38.273Z,15.50
2023-05-10T18:45:10.705Z,15.95
2023-05-10T18:47:39.209Z,15.94
2023-05-10T18:50:07.021Z,15.86
2023-05-10T18:52:34.107Z,15.48
2023-05-10T18:55:01.698Z,15.41
2023-05-10T18:57:28.830Z,15.23
2023-05-10T18:59:56.162Z,15.26
2023-05-10T19:02:26.802Z,15.57
2023-05-10T19:04:54.567Z,15.03
2023-05-10T19:07:21.732Z,15.44
2023-05-10T19:09:49.092Z,15.37
2023-05-10T19:12:16.135Z,14.82
2023-05-10T19:14:43.824Z,14.79
2023-05-10T19:17:12.207Z,14.70
2023-05-10T19:19:40.921Z,14.60
2023-05-10T19:22:08.038Z,14.84
2023-05-10T19:24:36.649Z,14.51
2023-05-10T19:27:03.928Z,14.54
2023-05-10T19:29:31.436Z,14.68
2023-05-10T19:31:58.874Z,14.62
2023-05-10T19:34:27.282Z,14.37
2023-05-10T19:36:55.793Z,14.61
2023-05-10T19:39:22.954Z,15.05
2023-05-10T19:41:50.120Z,15.05
2023-05-10T19:44:18.040Z,15.07
2023-05-10T19:46:46.039Z,14.55
2023-05-10T19:49:13.314Z,14.51
2023-05-10T19:51:41.311Z,14.16
2023-05-10T19:54:10.288Z,14.97
2023-05-10T19:56:37.323Z,14.87
2023-05-10T19:59:04.674Z,14.20
2023-05-10T20:01:32.803Z,14.72
2023-05-10T20:04:00.342Z,13.95
2023-05-10T20:06:27.559Z,14.16
2023-05-10T20:08:54.914Z,14.10
2023-05-10T20:11:23.519Z,14.39
2023-05-10T20:13:51.212Z,14.31
2023-05-10T20:16:18.349Z,14.19
2023-05-10T20:18:46.650Z,13.61
2023-05-10T20:21:14.132Z,13.52
2023-05-10T20:23:41.923Z,13.96
2023-05-10T20:26:08.944Z,13.92
2023-05-10T20:28:37.926Z,13.51
2023-05-10T20:31:05.128Z,13.61
2023-05-10T20:33:33.344Z,13.76
2023-05-10T20:36:00.386Z,13.77
2023-05-10T20:38:27.798Z,13.43
2023-05-10T20:40:54.770Z,13.74
2023-05-10T20:43:22.124Z,13.28
2023-05-10T20:45:50.611Z,13.39
2023-05-10T20:48:17.904Z,13.13
2023-05-10T20:50:45.139Z,13.50
2023-05-10T20:53:14.506Z,13.39
2023-05-10T20:55:41.943Z,13.36
2023-05-10T20:58:09.272Z,13.38
2023-05-10T21:00:36.402Z,13.36
2023-05-10T21:03:05.529Z,13.35
2023-05-10T21:05:32.982Z,13.13
2023-05-10T21:08:00.246Z,13.35
2023-05-10T21:10:28.426Z,13.30
2023-05-10T21:12:56.168Z,13.19
2023-05-10T21:15:24.484Z,13.12
2023-05-10T21:17:54.078Z,13.00
2023-05-10T21:20:23.866Z,12.96
2023-05-10T21:22:51.399Z,12.85
2023-05-10T21:25:19.062Z,12.78
2023-05-10T21:27:48.407Z,12.74
2023-05-10T21:30:17.323Z,12.52
2023-05-10T21:32:47.443Z,12.14
2023-05-10T21:35:18.307Z,12.00
2023-05-10T21:37:48.583Z,12.49
2023-05-10T21:40:17.927Z,11.87
2023-05-10T21:42:49.584Z,11.99
2023-05-10T21:45:18.172Z,11.92
2023-05-10T21:47:46.304Z,12.52
2023-05-10T21:50:13.695Z,12.52
2023-05-10T21:52:41.982Z,11.92
2023-05-10T21:55:13.472Z,12.02
2023-05-10T21:57:42.235Z,11.76
2023-05-10T22:00:12.238Z,11.66
2023-05-10T22:02:42.039Z,12.02
2023-05-10T22:05:11.682Z,12.14
2023-05-10T22:07:44.790Z,11.59
2023-05-10T22:10:21.131Z,11.60
2023-05-10T22:12:52.037Z,11.54
2023-05-10T22:15:21.764Z,11.99
2023-05-10T22:17:50.028Z,11.34
2023-05-10T22:20:18.955Z,11.27
2023-05-10T22:22:51.270Z,11.28
2023-05-10T22:25:20.227Z,11.16
2023-05-10T22:27:49.232Z,11.03
2023-05-10T22:30:17.254Z,11.11
2023-05-10T22:32:46.991Z,10.83
2023-05-10T22:35:14.348Z,11.55
2023-05-10T22:37:45.334Z,11.08
2023-05-10T22:40:14.251Z,11.57
2023-05-10T22:42:44.127Z,11.57
2023-05-10T22:45:12.247Z,11.44
2023-05-10T22:47:40.888Z,11.56
2023-05-10T22:50:12.843Z,11.51
2023-05-10T22:52:45.160Z,10.84
2023-05-10T22:55:14.113Z,11.00
2023-05-10T22:57:46.225Z,10.99
2023-05-10T23:00:17.273Z,11.29
2023-05-10T23:02:45.508Z,11.39
2023-05-10T23:05:13.772Z,11.36
2023-05-10T23:07:41.745Z,11.11
2023-05-10T23:10:09.607Z,11.15
2023-05-10T23:12:37.529Z,10.90
2023-05-10T23:15:08.364Z,11.19
2023-05-10T23:17:36.106Z,11.33
2023-05-10T23:20:03.638Z,11.34
2023-05-10T23:22:31.364Z,11.33
2023-05-10T23:24:58.455Z,11.38
2023-05-10T23:27:28.829Z,11.12
2023-05-10T23:29:56.056Z,11.29
2023-05-10T23:32:25.324Z,10.99
2023-05-10T23:34:53.869Z,11.28
2023-05-10T23:37:21.922Z,11.12
2023-05-10T23:39:49.098Z,11.18
2023-05-10T23:42:16.483Z,11.13
2023-05-10T23:44:43.490Z,11.10
2023-05-10T23:47:12.839Z,11.03
2023-05-10T23:49:42.256Z,10.91
2023-05-10T23:52:09.892Z,10.59
2023-05-10T23:54:49.850Z,11.04
2023-05-10T23:57:17.358Z,11.08
2023-05-10T23:59:45.017Z,11.06
